Pagrindinis puslapis
METAR-TAF:

METAR-TAF

Oro uostai :

Nikosija, Kipras

platuma: 35-09N, ilguma: 033-30E, Aukštis: 91 m

Dabartinis oras

Ataskaita buvo paskelbta 27 minutes, ne 23:20 UTC
Vėjas 9 kt iš Vakarų/Šiaurės Vakarų
Temperatūra 21°C
Drėgmė 83%
Slėgis 1013 hPa
Matomumas 10 km arba daugiau
nėra debesų žemiau 1500 m ir nėra kamuolinių lietaus debesų

METAR: LCEN 182320Z 30009KT CAVOK 21/18 Q1013 NOSIG RMK RWY11 29007KT

Laikas: 02:47 (23:47 UTC)

Prognozė

Ataskaita buvo paskelbta 1 valandą ir 7 minutes, ne 22:40 UTC
Prognozė galioja nuo 19 metu 00 UTC su 19 metu 24 UTC
Vėjas 12 kt iš Vakarų/Šiaurės Vakarų
Matomumas 10 km arba daugiau
Mažai debesys ne aukštis 2500 ft
Tapsmas
nuo 19 metu 06 UTC su 19 metu 09 UTC
Vėjas 12 kt iš Rytų

TAF: LCEN 182240Z 1900/1924 30012KT 9999 FEW025 BECMG 1906/1909 10012KT

Orai ataskaitas ir orų prognozės (METAR, TAF).

turimą stotys yra geltonos ir raudonos taškus žemėlapyje.

Perkelti pele per norėdami pamatyti stoties vardą.

Tada spustelėkite, norėdami matyti oro stebėjimo ir prognozės.

Norėdami pakeisti žemėlapį: spustelėkite ant žalios mygtukų su juodo kryžiaus žemyn,; žalią mygtuką su brūkšneliu, jei norite nutolinti; arba žalių rodyklių gretimoms žemėlapius.


METAR-TAF: